createdAt,value
2019-04-29T00:00:54.116Z,55.60
2019-04-29T00:01:58.874Z,53.48
2019-04-29T00:03:03.357Z,63.95
2019-04-29T00:04:13.515Z,65.32
2019-04-29T00:05:17.798Z,65.05
2019-04-29T00:06:22.134Z,71.37
2019-04-29T00:07:27.950Z,74.53
2019-04-29T00:08:33.864Z,70.10
2019-04-29T00:09:39.610Z,73.70
2019-04-29T00:10:44.558Z,68.07
2019-04-29T00:11:48.699Z,72.50
2019-04-29T00:12:52.954Z,80.28
2019-04-29T00:13:57.099Z,70.67
2019-04-29T00:15:11.882Z,75.47
2019-04-29T00:16:34.388Z,77.95
2019-04-29T00:17:55.595Z,66.17
2019-04-29T00:19:12.616Z,71.30
2019-04-29T00:20:30.682Z,80.40
2019-04-29T00:21:37.422Z,88.42
2019-04-29T00:22:41.590Z,84.28
2019-04-29T00:23:46.387Z,96.97
2019-04-29T00:24:52.072Z,95.53
2019-04-29T00:25:56.444Z,99.52
2019-04-29T00:27:04.028Z,105.85
2019-04-29T00:28:06.426Z,99.07
2019-04-29T00:29:12.394Z,105.65
2019-04-29T00:30:22.046Z,103.85
2019-04-29T00:31:26.125Z,103.17
2019-04-29T00:32:32.641Z,97.62
2019-04-29T00:33:36.808Z,101.72
2019-04-29T00:34:40.961Z,102.07
2019-04-29T00:35:47.717Z,92.37
2019-04-29T00:36:57.429Z,95.20
2019-04-29T00:38:22.884Z,88.42
2019-04-29T00:39:47.936Z,82.12
2019-04-29T00:41:03.922Z,81.63
2019-04-29T00:42:15.908Z,82.35
2019-04-29T00:43:39.162Z,69.53
2019-04-29T00:44:46.612Z,81.10
2019-04-29T00:45:54.709Z,81.37
2019-04-29T00:47:00.497Z,73.30
2019-04-29T00:48:06.319Z,72.90
2019-04-29T00:49:13.002Z,65.70
2019-04-29T00:50:16.589Z,69.42
2019-04-29T00:51:21.078Z,56.35
2019-04-29T00:52:26.157Z,59.23
2019-04-29T00:53:34.714Z,52.90
2019-04-29T00:54:54.792Z,57.08
2019-04-29T00:56:00.554Z,55.98
2019-04-29T00:57:06.684Z,49.38
2019-04-29T00:58:13.754Z,56.42
2019-04-29T00:59:26.202Z,52.25
2019-04-29T01:00:35.994Z,58.85
2019-04-29T01:01:40.333Z,56.15
2019-04-29T01:02:47.548Z,51.75
2019-04-29T01:03:52.778Z,55.20
2019-04-29T01:05:00.468Z,56.85
2019-04-29T01:06:07.744Z,57.73
2019-04-29T01:07:14.061Z,65.22
2019-04-29T01:08:28.335Z,72.58
2019-04-29T01:09:35.771Z,65.78
2019-04-29T01:10:42.443Z,70.35
2019-04-29T01:11:47.476Z,67.03
2019-04-29T01:12:53.512Z,73.20
2019-04-29T01:14:03.966Z,80.97
2019-04-29T01:15:08.472Z,76.97
2019-04-29T01:16:16.780Z,75.62
2019-04-29T01:17:21.721Z,76.25
2019-04-29T01:18:27.522Z,68.30
2019-04-29T01:19:34.467Z,65.67
2019-04-29T01:20:38.564Z,74.45
2019-04-29T01:21:44.619Z,68.67
2019-04-29T01:22:48.954Z,61.98
2019-04-29T01:23:53.158Z,63.48
2019-04-29T01:25:00.154Z,63.15
2019-04-29T01:26:23.963Z,61.92
2019-04-29T01:27:29.818Z,93.58
2019-04-29T01:28:38.848Z,86.40
2019-04-29T01:29:45.771Z,77.90
2019-04-29T01:30:55.325Z,79.53
2019-04-29T01:31:59.462Z,82.08
2019-04-29T01:33:08.009Z,81.87
2019-04-29T01:34:16.210Z,84.72
2019-04-29T01:35:23.030Z,71.72
2019-04-29T01:36:40.344Z,75.08
2019-04-29T01:37:47.311Z,69.25
2019-04-29T01:38:53.154Z,64.27
2019-04-29T01:40:15.226Z,65.55
2019-04-29T01:41:29.629Z,66.37
2019-04-29T01:42:37.922Z,62.13
2019-04-29T01:44:00.053Z,67.22
2019-04-29T01:45:05.756Z,71.42
2019-04-29T01:46:09.965Z,73.35
2019-04-29T01:47:15.600Z,65.15
2019-04-29T01:48:19.706Z,72.92
2019-04-29T01:49:23.850Z,69.55
2019-04-29T01:50:27.876Z,66.40
2019-04-29T01:51:31.965Z,68.10
2019-04-29T01:52:36.208Z,74.72
2019-04-29T01:53:41.905Z,74.00
2019-04-29T01:54:46.139Z,66.15
2019-04-29T01:55:53.043Z,64.62
2019-04-29T01:56:57.271Z,69.65
2019-04-29T01:58:01.343Z,69.45
2019-04-29T01:59:05.551Z,61.85
2019-04-29T02:00:12.410Z,65.90
2019-04-29T02:01:16.886Z,62.20
2019-04-29T02:02:25.130Z,58.95
2019-04-29T02:03:28.175Z,65.10
2019-04-29T02:04:32.317Z,71.87
2019-04-29T02:05:36.462Z,75.37
2019-04-29T02:06:40.561Z,70.87
2019-04-29T02:07:44.740Z,69.87
2019-04-29T02:08:49.923Z,78.83
2019-04-29T02:09:58.498Z,71.22
2019-04-29T02:11:08.119Z,65.10
2019-04-29T02:12:16.849Z,71.87
2019-04-29T02:13:21.049Z,69.90
2019-04-29T02:14:28.121Z,69.58
2019-04-29T02:15:33.694Z,60.23
2019-04-29T02:16:37.905Z,76.67
2019-04-29T02:17:43.333Z,97.72
2019-04-29T02:18:49.037Z,94.95
2019-04-29T02:19:55.492Z,91.72
2019-04-29T02:21:00.813Z,97.02
2019-04-29T02:22:15.063Z,93.07
2019-04-29T02:23:20.875Z,109.35
2019-04-29T02:24:25.219Z,107.63
2019-04-29T02:25:39.771Z,106.43
2019-04-29T02:26:46.743Z,96.55
2019-04-29T02:27:52.583Z,97.70
2019-04-29T02:28:58.227Z,91.45
2019-04-29T02:30:05.304Z,103.92
2019-04-29T02:31:27.355Z,90.03
2019-04-29T02:32:31.585Z,83.70
2019-04-29T02:33:36.865Z,86.08
2019-04-29T02:34:42.374Z,86.32
2019-04-29T02:35:46.686Z,82.50
2019-04-29T02:36:51.838Z,79.72
2019-04-29T02:38:02.618Z,75.03
2019-04-29T02:39:25.449Z,78.60
2019-04-29T02:40:35.810Z,83.10
2019-04-29T02:43:08.700Z,86.70
2019-04-29T02:44:14.902Z,99.52
2019-04-29T02:45:30.992Z,101.92
2019-04-29T02:46:42.587Z,96.20
2019-04-29T02:47:45.649Z,92.78
2019-04-29T02:48:49.794Z,92.53
2019-04-29T02:49:56.706Z,96.75
2019-04-29T02:51:03.938Z,89.55
2019-04-29T02:52:08.194Z,98.00
2019-04-29T02:53:15.542Z,106.10
2019-04-29T02:54:19.939Z,103.12
2019-04-29T02:55:25.674Z,112.80
2019-04-29T02:56:30.022Z,105.25
2019-04-29T02:57:49.299Z,95.85
2019-04-29T02:58:55.203Z,96.40
2019-04-29T03:00:01.034Z,98.97
2019-04-29T03:01:27.339Z,97.42
2019-04-29T03:02:33.934Z,89.77
2019-04-29T03:03:46.776Z,84.72
2019-04-29T03:04:52.603Z,83.00
2019-04-29T03:06:01.351Z,82.65
2019-04-29T03:07:08.524Z,87.33
2019-04-29T03:08:12.851Z,87.95
2019-04-29T03:09:17.024Z,91.70
2019-04-29T03:10:21.209Z,87.47
2019-04-29T03:11:25.823Z,83.05
2019-04-29T03:12:30.134Z,87.50
2019-04-29T03:13:36.178Z,89.10
2019-04-29T03:14:40.409Z,95.53
2019-04-29T03:15:44.818Z,95.15
2019-04-29T03:16:51.363Z,84.85
2019-04-29T03:17:57.201Z,96.60
2019-04-29T03:19:03.124Z,87.12
2019-04-29T03:20:09.192Z,104.05
2019-04-29T03:21:20.975Z,94.00
2019-04-29T03:22:25.550Z,84.77
2019-04-29T03:23:30.173Z,98.35
2019-04-29T03:24:34.433Z,103.92
2019-04-29T03:25:38.700Z,110.40
2019-04-29T03:26:42.974Z,105.60
2019-04-29T03:27:47.242Z,96.37
2019-04-29T03:28:51.437Z,96.78
2019-04-29T03:29:56.392Z,91.12
2019-04-29T03:31:02.211Z,81.90
2019-04-29T03:32:06.512Z,80.15
2019-04-29T03:33:10.678Z,87.17
2019-04-29T03:34:16.356Z,80.30
2019-04-29T03:35:20.603Z,74.85
2019-04-29T03:36:24.724Z,76.45
2019-04-29T03:37:30.251Z,69.65
2019-04-29T03:38:39.967Z,69.53
2019-04-29T03:39:49.876Z,59.67
2019-04-29T03:40:54.107Z,61.02
2019-04-29T03:41:58.297Z,57.45
2019-04-29T03:43:02.477Z,59.13
2019-04-29T03:44:06.812Z,64.42
2019-04-29T03:45:13.472Z,67.95
2019-04-29T03:46:17.645Z,66.45
2019-04-29T03:47:22.437Z,59.55
2019-04-29T03:48:28.944Z,57.00
2019-04-29T03:49:34.161Z,56.15
2019-04-29T03:50:38.305Z,53.90
2019-04-29T03:51:42.459Z,61.70
2019-04-29T03:52:47.565Z,57.78
2019-04-29T03:53:53.063Z,61.48
2019-04-29T03:54:57.283Z,58.15
2019-04-29T03:56:01.579Z,54.18
2019-04-29T03:57:06.380Z,53.30
2019-04-29T03:58:10.716Z,55.38
2019-04-29T03:59:14.874Z,55.15
2019-04-29T04:00:19.164Z,53.28
2019-04-29T04:01:27.873Z,52.73
2019-04-29T04:02:49.934Z,50.05
2019-04-29T04:04:06.252Z,54.60
2019-04-29T04:05:31.394Z,48.40
2019-04-29T04:06:46.429Z,49.58
2019-04-29T04:07:55.176Z,46.00
2019-04-29T04:09:06.711Z,50.25
2019-04-29T04:10:11.309Z,41.70
2019-04-29T04:11:20.154Z,43.30
2019-04-29T04:12:28.724Z,46.05
2019-04-29T04:13:34.268Z,43.28
2019-04-29T04:14:38.376Z,43.55
2019-04-29T04:15:42.772Z,44.73
2019-04-29T04:17:05.170Z,48.10
2019-04-29T04:18:29.352Z,45.95
2019-04-29T04:19:33.951Z,42.73
2019-04-29T04:20:38.779Z,42.13
2019-04-29T04:21:43.134Z,45.75
2019-04-29T04:22:48.598Z,45.67
2019-04-29T04:23:57.950Z,46.63
2019-04-29T04:25:02.742Z,40.58
2019-04-29T04:26:07.422Z,45.67
2019-04-29T04:27:12.557Z,45.55
2019-04-29T04:28:18.350Z,49.67
2019-04-29T04:29:22.516Z,48.63
2019-04-29T04:30:27.041Z,42.73
2019-04-29T04:31:31.962Z,40.10
2019-04-29T04:32:36.982Z,40.95
2019-04-29T04:33:41.350Z,44.93
2019-04-29T04:34:47.026Z,41.68
2019-04-29T04:35:51.321Z,48.10
2019-04-29T04:36:59.924Z,41.48
2019-04-29T04:38:03.839Z,39.15
2019-04-29T04:39:09.100Z,40.90
2019-04-29T04:40:16.994Z,39.33
2019-04-29T04:41:21.334Z,47.58
2019-04-29T04:42:29.441Z,43.83
2019-04-29T04:43:31.498Z,37.70
2019-04-29T04:44:51.759Z,42.67
2019-04-29T04:45:55.835Z,40.78
2019-04-29T04:47:00.098Z,41.65
2019-04-29T04:48:04.320Z,43.33
2019-04-29T04:49:10.294Z,36.83
2019-04-29T04:50:16.179Z,43.58
2019-04-29T04:51:20.325Z,42.25
2019-04-29T04:52:24.530Z,41.33
2019-04-29T04:53:28.704Z,47.17
2019-04-29T04:54:32.946Z,42.38
2019-04-29T04:55:38.874Z,41.83
2019-04-29T04:56:43.095Z,40.60
2019-04-29T04:57:47.161Z,40.90
2019-04-29T04:58:52.052Z,46.50
2019-04-29T04:59:56.279Z,42.58
2019-04-29T05:01:00.471Z,42.53
2019-04-29T05:02:04.711Z,43.28
2019-04-29T05:03:09.202Z,38.08
2019-04-29T05:04:13.445Z,44.73
2019-04-29T05:05:17.734Z,41.50
2019-04-29T05:06:22.068Z,39.92
2019-04-29T05:07:26.225Z,41.33
2019-04-29T05:08:30.549Z,40.98
2019-04-29T05:09:34.949Z,39.60
2019-04-29T05:10:39.203Z,39.70
2019-04-29T05:11:44.611Z,45.48
2019-04-29T05:12:48.855Z,39.67
2019-04-29T05:13:52.998Z,45.17
2019-04-29T05:14:58.604Z,40.43
2019-04-29T05:16:04.336Z,37.28
2019-04-29T05:17:08.645Z,38.88
2019-04-29T05:18:15.378Z,37.65
2019-04-29T05:19:19.552Z,41.98
2019-04-29T05:20:23.744Z,45.20
2019-04-29T05:21:30.638Z,47.00
2019-04-29T05:22:35.003Z,41.10
2019-04-29T05:23:41.659Z,40.92
2019-04-29T05:24:44.998Z,39.73
2019-04-29T05:25:49.234Z,39.78
2019-04-29T05:26:53.393Z,42.33
2019-04-29T05:27:57.685Z,40.00
2019-04-29T05:29:01.862Z,37.65
2019-04-29T05:30:08.061Z,35.63
2019-04-29T05:31:12.292Z,39.90
2019-04-29T05:32:16.569Z,40.78
2019-04-29T05:33:20.982Z,41.30
2019-04-29T05:34:26.855Z,36.93
2019-04-29T05:35:32.773Z,39.45
2019-04-29T05:36:44.280Z,38.75
2019-04-29T05:37:52.681Z,31.95
2019-04-29T05:38:58.618Z,35.95
2019-04-29T05:40:02.886Z,38.38
2019-04-29T05:41:07.246Z,36.80
2019-04-29T05:42:16.013Z,39.42
2019-04-29T05:43:18.984Z,41.30
2019-04-29T05:44:44.323Z,37.98
2019-04-29T05:46:07.565Z,33.65
2019-04-29T05:47:18.007Z,35.05
2019-04-29T05:49:30.320Z,36.50
2019-04-29T05:50:47.486Z,41.45
2019-04-29T05:52:02.035Z,39.55
2019-04-29T05:53:17.790Z,43.17
2019-04-29T05:54:26.898Z,39.53
2019-04-29T05:55:30.467Z,41.02
2019-04-29T05:56:34.738Z,40.63
2019-04-29T05:57:42.835Z,42.10
2019-04-29T05:58:46.313Z,46.53
2019-04-29T05:59:50.452Z,40.43
2019-04-29T06:01:02.491Z,39.67
2019-04-29T06:02:06.752Z,39.88
2019-04-29T06:03:11.006Z,46.35
2019-04-29T06:04:16.434Z,44.40
2019-04-29T06:05:21.031Z,45.30
2019-04-29T06:06:25.280Z,39.00
2019-04-29T06:07:29.625Z,42.23
2019-04-29T06:08:34.508Z,47.17
2019-04-29T06:09:39.736Z,40.38
2019-04-29T06:10:44.029Z,41.63
2019-04-29T06:11:48.144Z,41.37
2019-04-29T06:12:52.320Z,39.03
2019-04-29T06:13:56.664Z,39.60
2019-04-29T06:15:00.910Z,39.15
2019-04-29T06:16:05.108Z,42.20
2019-04-29T06:17:09.414Z,48.05
2019-04-29T06:18:13.626Z,42.98
2019-04-29T06:19:17.722Z,43.28
2019-04-29T06:20:22.879Z,42.88
2019-04-29T06:21:27.287Z,39.13
2019-04-29T06:22:31.441Z,41.23
2019-04-29T06:23:35.595Z,41.20
2019-04-29T06:24:41.176Z,41.18
2019-04-29T06:25:45.665Z,38.15
2019-04-29T06:26:49.827Z,40.05
2019-04-29T06:27:57.234Z,35.20
2019-04-29T06:29:01.517Z,34.20
2019-04-29T06:30:07.195Z,39.73
2019-04-29T06:31:11.384Z,37.80
2019-04-29T06:32:20.198Z,38.98
2019-04-29T06:33:28.889Z,37.58
2019-04-29T06:34:35.402Z,37.53
2019-04-29T06:35:39.235Z,37.75
2019-04-29T06:36:43.418Z,44.83
2019-04-29T06:37:47.648Z,46.70
2019-04-29T06:38:51.769Z,56.35
2019-04-29T06:39:55.979Z,39.70
2019-04-29T06:41:00.264Z,39.88
2019-04-29T06:42:04.494Z,35.55
2019-04-29T06:43:08.573Z,38.55
2019-04-29T06:44:16.666Z,37.58
2019-04-29T06:45:18.882Z,37.15
2019-04-29T06:46:23.087Z,39.80
2019-04-29T06:47:29.752Z,37.13
2019-04-29T06:48:33.286Z,37.93
2019-04-29T06:49:39.003Z,40.50
2019-04-29T06:50:44.839Z,35.83
2019-04-29T06:51:51.230Z,41.48
2019-04-29T06:52:56.460Z,34.78
2019-04-29T06:54:00.842Z,35.45
2019-04-29T06:55:06.298Z,35.75
2019-04-29T06:56:10.615Z,39.20
2019-04-29T06:57:14.783Z,41.55
2019-04-29T06:58:18.944Z,39.60
2019-04-29T06:59:23.232Z,36.38
2019-04-29T07:00:27.373Z,37.08
2019-04-29T07:01:33.096Z,34.60
2019-04-29T07:02:37.398Z,38.58
2019-04-29T07:03:41.548Z,37.20
2019-04-29T07:04:45.747Z,38.55
2019-04-29T07:05:51.621Z,35.60
2019-04-29T07:06:57.948Z,40.05
2019-04-29T07:08:03.680Z,35.75
2019-04-29T07:09:07.978Z,34.30
2019-04-29T07:10:16.571Z,30.20
2019-04-29T07:11:18.275Z,31.10
2019-04-29T07:12:22.547Z,30.62
2019-04-29T07:13:26.643Z,34.25
2019-04-29T07:14:33.314Z,37.98
2019-04-29T07:15:36.712Z,35.83
2019-04-29T07:16:40.863Z,38.05
2019-04-29T07:17:47.946Z,35.33
2019-04-29T07:18:53.820Z,38.40
2019-04-29T07:20:01.994Z,34.20
2019-04-29T07:21:07.514Z,39.65
2019-04-29T07:22:09.607Z,38.35
2019-04-29T07:23:13.817Z,34.10
2019-04-29T07:24:20.317Z,36.55
2019-04-29T07:25:28.861Z,38.58
2019-04-29T07:26:31.244Z,35.33
2019-04-29T07:27:42.969Z,34.13
2019-04-29T07:28:43.502Z,39.55
2019-04-29T07:29:47.708Z,39.33
2019-04-29T07:31:02.639Z,42.73
2019-04-29T07:31:59.314Z,37.53
2019-04-29T07:33:05.541Z,35.65
2019-04-29T07:34:10.886Z,35.08
2019-04-29T07:35:15.436Z,35.23
2019-04-29T07:36:22.839Z,33.98
2019-04-29T07:37:25.640Z,35.95
2019-04-29T07:38:40.753Z,33.90
2019-04-29T07:39:40.218Z,34.70
2019-04-29T07:40:44.647Z,34.05
2019-04-29T07:41:53.692Z,31.23
2019-04-29T07:42:57.984Z,35.98
2019-04-29T07:44:04.747Z,36.60
2019-04-29T07:45:14.470Z,34.85
2019-04-29T07:46:22.396Z,39.15
2019-04-29T07:47:29.568Z,35.80
2019-04-29T07:48:42.026Z,36.35
2019-04-29T07:49:51.027Z,37.45
2019-04-29T07:50:54.814Z,37.45
2019-04-29T07:53:44.785Z,33.53
2019-04-29T07:54:54.890Z,34.20
2019-04-29T07:55:56.946Z,32.73
2019-04-29T07:57:01.253Z,34.20
2019-04-29T07:58:08.258Z,32.30
2019-04-29T07:59:12.630Z,34.45
2019-04-29T08:00:18.570Z,34.92
2019-04-29T08:01:24.520Z,37.03
2019-04-29T08:02:29.033Z,36.58
2019-04-29T08:03:33.238Z,34.90
2019-04-29T08:04:40.327Z,36.00
2019-04-29T08:05:43.364Z,32.50
2019-04-29T08:06:47.641Z,35.13
2019-04-29T08:07:52.306Z,37.38
2019-04-29T08:09:07.419Z,35.80
2019-04-29T08:10:22.872Z,33.92
2019-04-29T08:11:12.856Z,31.02
2019-04-29T08:12:18.235Z,28.35
2019-04-29T08:13:24.514Z,32.28
2019-04-29T08:14:31.774Z,35.25
2019-04-29T08:15:36.757Z,35.48
2019-04-29T08:16:41.893Z,35.23
2019-04-29T08:17:46.158Z,33.38
2019-04-29T08:18:53.476Z,33.38
2019-04-29T08:19:56.183Z,32.08
2019-04-29T08:21:00.437Z,33.58
2019-04-29T08:22:04.660Z,32.83
2019-04-29T08:23:08.856Z,34.25
2019-04-29T08:24:15.794Z,36.70
2019-04-29T08:25:21.770Z,37.35
2019-04-29T08:26:26.105Z,36.63
2019-04-29T08:27:39.809Z,30.97
2019-04-29T08:28:37.593Z,34.15
2019-04-29T08:29:41.707Z,30.25
2019-04-29T08:30:46.249Z,30.90
2019-04-29T08:31:56.304Z,31.35
2019-04-29T08:32:57.355Z,33.30
2019-04-29T08:34:01.471Z,31.15
2019-04-29T08:35:07.247Z,30.52
2019-04-29T08:36:11.362Z,29.35
2019-04-29T08:37:15.514Z,35.17
2019-04-29T08:38:19.632Z,31.73
2019-04-29T08:39:24.994Z,30.43
2019-04-29T08:40:34.020Z,31.20
2019-04-29T08:41:36.981Z,31.80
2019-04-29T08:42:48.456Z,35.98
2019-04-29T08:44:14.985Z,31.65
2019-04-29T08:45:14.994Z,33.65
2019-04-29T08:46:27.233Z,36.35
2019-04-29T08:47:33.150Z,29.87
2019-04-29T08:48:37.235Z,34.45
2019-04-29T08:49:41.398Z,30.48
2019-04-29T08:50:48.248Z,34.90
2019-04-29T08:51:52.381Z,32.23
2019-04-29T08:52:56.557Z,32.30
2019-04-29T08:54:00.705Z,33.98
2019-04-29T08:55:05.337Z,29.30
2019-04-29T08:56:10.134Z,31.45
2019-04-29T08:57:16.915Z,28.70
2019-04-29T08:58:20.993Z,27.95
2019-04-29T08:59:25.832Z,29.57
2019-04-29T09:00:30.166Z,32.28
2019-04-29T09:01:35.805Z,29.57
2019-04-29T09:02:41.530Z,31.12
2019-04-29T09:03:45.935Z,30.00
2019-04-29T09:04:53.742Z,27.65
2019-04-29T09:06:05.269Z,29.32
2019-04-29T09:07:11.958Z,30.12
2019-04-29T09:08:07.382Z,32.00
2019-04-29T09:09:27.933Z,33.40
2019-04-29T09:10:17.572Z,27.13
2019-04-29T09:11:21.912Z,30.43
2019-04-29T09:12:29.632Z,28.87
2019-04-29T09:13:33.974Z,31.25
2019-04-29T09:14:40.676Z,37.00
2019-04-29T09:15:44.125Z,37.00
2019-04-29T09:16:48.196Z,26.68
2019-04-29T09:17:52.595Z,33.08
2019-04-29T09:18:56.695Z,30.60
2019-04-29T09:20:00.823Z,29.63
2019-04-29T09:21:06.768Z,30.23
2019-04-29T09:22:14.998Z,28.73
2019-04-29T09:23:19.864Z,26.35
2019-04-29T09:24:26.371Z,25.90
2019-04-29T09:25:32.232Z,28.73
2019-04-29T09:26:40.205Z,31.07
2019-04-29T09:27:46.228Z,29.63
2019-04-29T09:28:50.530Z,28.85
2019-04-29T09:29:58.896Z,28.60
2019-04-29T09:31:00.411Z,24.82
2019-04-29T09:32:05.818Z,31.00
2019-04-29T09:33:13.095Z,27.58
2019-04-29T09:34:19.919Z,27.32
2019-04-29T09:35:21.662Z,28.47
2019-04-29T09:36:28.659Z,27.25
2019-04-29T09:37:31.517Z,28.55
2019-04-29T09:38:36.804Z,26.37
2019-04-29T09:39:45.333Z,30.48
2019-04-29T09:40:54.477Z,30.88
2019-04-29T09:41:58.494Z,28.30
2019-04-29T09:43:15.369Z,26.45
2019-04-29T09:44:30.121Z,28.20
2019-04-29T09:45:36.131Z,27.73
2019-04-29T09:46:41.785Z,25.32
2019-04-29T09:47:47.146Z,33.08
2019-04-29T09:48:51.375Z,28.75
2019-04-29T09:49:55.523Z,29.27
2019-04-29T09:50:59.768Z,27.82
2019-04-29T09:52:05.448Z,28.00
2019-04-29T09:53:09.608Z,29.98
2019-04-29T09:54:14.502Z,30.25
2019-04-29T09:55:20.816Z,30.08
2019-04-29T09:56:26.681Z,25.97
2019-04-29T09:57:30.791Z,28.83
2019-04-29T09:58:34.959Z,27.30
2019-04-29T09:59:46.753Z,30.50
2019-04-29T10:00:58.285Z,26.42
2019-04-29T10:02:03.014Z,24.92
2019-04-29T10:03:09.865Z,25.88
2019-04-29T10:04:15.664Z,26.05
2019-04-29T10:05:37.666Z,25.35
2019-04-29T10:06:43.470Z,24.55
2019-04-29T10:07:47.556Z,24.92
2019-04-29T10:08:51.653Z,22.52
2019-04-29T10:09:57.288Z,28.55
2019-04-29T10:11:01.684Z,26.70
2019-04-29T10:12:06.009Z,30.17
2019-04-29T10:13:10.155Z,26.52
2019-04-29T10:14:14.370Z,25.40
2019-04-29T10:15:20.346Z,27.45
2019-04-29T10:16:26.097Z,27.93
2019-04-29T10:17:34.589Z,26.73
2019-04-29T10:18:52.673Z,29.27
2019-04-29T10:20:01.227Z,26.60
2019-04-29T10:21:09.878Z,24.37
2019-04-29T10:22:14.103Z,30.35
2019-04-29T10:23:18.247Z,26.97
2019-04-29T10:24:22.358Z,23.35
2019-04-29T10:25:26.571Z,25.08
2019-04-29T10:26:30.787Z,26.12
2019-04-29T10:27:35.010Z,28.57
2019-04-29T10:28:40.821Z,27.80
2019-04-29T10:29:50.833Z,24.40
2019-04-29T10:30:53.207Z,27.65
2019-04-29T10:31:57.718Z,28.87
2019-04-29T10:33:01.887Z,25.82
2019-04-29T10:34:07.873Z,28.27
2019-04-29T10:35:12.535Z,24.65
2019-04-29T10:36:20.698Z,27.48
2019-04-29T10:37:23.756Z,24.20
2019-04-29T10:38:28.448Z,27.07
2019-04-29T10:39:49.536Z,26.73
2019-04-29T10:41:00.522Z,25.55
2019-04-29T10:42:04.011Z,25.97
2019-04-29T10:43:17.143Z,23.90
2019-04-29T10:44:23.041Z,26.10
2019-04-29T10:45:34.809Z,28.62
2019-04-29T10:46:58.755Z,26.62
2019-04-29T10:48:19.509Z,26.00
2019-04-29T10:49:28.198Z,24.27
2019-04-29T10:50:34.069Z,26.30
2019-04-29T10:51:38.271Z,27.17
2019-04-29T10:52:43.588Z,24.92
2019-04-29T10:53:50.903Z,25.52
2019-04-29T10:54:55.409Z,29.12
2019-04-29T10:56:03.617Z,24.52
2019-04-29T10:57:10.419Z,22.73
2019-04-29T10:58:13.819Z,24.65
2019-04-29T10:59:18.051Z,22.02
2019-04-29T11:00:44.931Z,25.15
2019-04-29T11:02:01.300Z,24.52
2019-04-29T11:03:05.207Z,22.87
2019-04-29T11:04:09.359Z,26.52
2019-04-29T11:05:25.558Z,22.32
2019-04-29T11:06:31.313Z,21.62
2019-04-29T11:07:37.184Z,25.65
2019-04-29T11:08:43.324Z,25.52
2019-04-29T11:09:50.849Z,27.32
2019-04-29T11:11:02.178Z,24.47
2019-04-29T11:12:02.312Z,24.12
2019-04-29T11:13:06.594Z,23.77
2019-04-29T11:14:11.465Z,26.05
2019-04-29T11:15:15.884Z,24.72
2019-04-29T11:16:22.835Z,24.25
2019-04-29T11:17:27.210Z,26.97
2019-04-29T11:18:31.408Z,24.85
2019-04-29T11:19:39.915Z,25.60
2019-04-29T11:20:44.467Z,25.48
2019-04-29T11:21:47.205Z,22.32
2019-04-29T11:23:16.296Z,21.35
2019-04-29T11:24:16.782Z,23.38
2019-04-29T11:25:22.665Z,26.17
2019-04-29T11:26:34.506Z,23.65
2019-04-29T11:27:40.291Z,23.42
2019-04-29T11:28:47.006Z,25.48
2019-04-29T11:29:50.429Z,21.30
2019-04-29T11:30:54.653Z,24.05
2019-04-29T11:31:59.737Z,21.57
2019-04-29T11:33:23.688Z,23.02
2019-04-29T11:34:35.347Z,22.05
2019-04-29T11:35:53.358Z,23.67
2019-04-29T11:36:57.522Z,24.95
2019-04-29T11:38:02.154Z,25.02
2019-04-29T11:39:09.042Z,28.65
2019-04-29T11:40:15.584Z,25.68
2019-04-29T11:41:20.891Z,23.18
2019-04-29T11:42:25.269Z,23.92
2019-04-29T11:43:29.615Z,23.40
2019-04-29T11:44:33.800Z,26.42
2019-04-29T11:45:38.961Z,23.75
2019-04-29T11:46:44.694Z,23.62
2019-04-29T11:47:51.432Z,27.98
2019-04-29T11:48:57.169Z,22.98
2019-04-29T11:50:03.085Z,21.90
2019-04-29T11:51:08.929Z,22.65
2019-04-29T11:52:15.512Z,21.23
2019-04-29T11:53:19.675Z,20.97
2019-04-29T11:54:23.949Z,19.95
2019-04-29T11:55:28.143Z,24.02
2019-04-29T11:56:32.559Z,24.30
2019-04-29T11:57:45.217Z,22.32
2019-04-29T11:59:08.335Z,23.83
2019-04-29T12:00:18.646Z,22.40
2019-04-29T12:02:45.733Z,22.90
2019-04-29T12:04:06.654Z,20.45
2019-04-29T12:05:13.159Z,23.90
2019-04-29T12:06:20.802Z,23.45
2019-04-29T12:07:32.038Z,22.80
2019-04-29T12:08:29.167Z,21.33
2019-04-29T12:09:34.305Z,24.23
2019-04-29T12:10:46.721Z,22.73
2019-04-29T12:11:44.250Z,22.65
2019-04-29T12:12:49.089Z,22.82
2019-04-29T12:13:58.979Z,25.68
2019-04-29T12:15:18.849Z,22.42
2019-04-29T12:16:33.941Z,22.10
2019-04-29T12:17:39.745Z,22.02
2019-04-29T12:18:45.501Z,22.10
2019-04-29T12:19:51.360Z,22.17
2019-04-29T12:21:13.502Z,21.93
2019-04-29T12:22:28.205Z,23.18
2019-04-29T12:23:23.617Z,24.47
2019-04-29T12:24:27.768Z,22.07
2019-04-29T12:25:36.280Z,20.92
2019-04-29T12:26:43.214Z,22.27
2019-04-29T12:27:43.855Z,22.40
2019-04-29T12:28:47.989Z,20.97
2019-04-29T12:29:54.466Z,20.12
2019-04-29T12:30:59.615Z,22.32
2019-04-29T12:32:05.542Z,24.65
2019-04-29T12:33:14.429Z,21.20
2019-04-29T12:34:32.264Z,18.70
2019-04-29T12:35:51.758Z,18.87
2019-04-29T12:36:55.740Z,19.37
2019-04-29T12:38:05.848Z,22.45
2019-04-29T12:39:42.821Z,36.88
2019-04-29T12:40:45.486Z,24.15
2019-04-29T12:42:06.865Z,23.15
2019-04-29T12:43:21.559Z,22.67
2019-04-29T12:44:35.353Z,20.97
2019-04-29T12:45:37.869Z,19.23
2019-04-29T12:46:52.682Z,20.02
2019-04-29T12:47:56.789Z,20.70
2019-04-29T12:49:03.656Z,22.17
2019-04-29T12:50:07.846Z,19.00
2019-04-29T12:51:12.068Z,18.52
2019-04-29T12:52:22.088Z,20.90
2019-04-29T12:53:26.129Z,18.32
2019-04-29T12:54:30.521Z,19.10
2019-04-29T12:55:50.141Z,19.02
2019-04-29T12:56:51.043Z,21.30
2019-04-29T12:57:55.314Z,22.13
2019-04-29T12:59:01.468Z,19.25
2019-04-29T13:00:09.208Z,19.37
2019-04-29T13:01:17.888Z,22.42
2019-04-29T13:02:24.647Z,24.77
2019-04-29T13:03:48.995Z,18.70
2019-04-29T13:04:54.719Z,21.68
2019-04-29T13:06:02.514Z,22.13
2019-04-29T13:07:25.763Z,20.12
2019-04-29T13:08:31.607Z,18.52
2019-04-29T13:09:52.731Z,17.70
2019-04-29T13:10:58.551Z,19.52
2019-04-29T13:12:19.073Z,21.40
2019-04-29T13:13:08.517Z,18.07
2019-04-29T13:14:12.698Z,16.85
2019-04-29T13:15:34.754Z,20.17
2019-04-29T13:16:42.993Z,19.32
2019-04-29T13:18:02.364Z,21.17
2019-04-29T13:19:10.609Z,19.27
2019-04-29T13:20:07.237Z,19.85
2019-04-29T13:21:13.792Z,16.90
2019-04-29T13:22:17.892Z,17.90
2019-04-29T13:23:33.182Z,17.12
2019-04-29T13:24:28.079Z,18.77
2019-04-29T13:25:32.474Z,20.15
2019-04-29T13:26:40.029Z,18.25
2019-04-29T13:27:43.617Z,18.82
2019-04-29T13:29:02.984Z,18.73
2019-04-29T13:29:53.543Z,19.10
2019-04-29T13:30:58.314Z,19.50
2019-04-29T13:32:02.546Z,18.65
2019-04-29T13:33:15.952Z,19.27
2019-04-29T13:34:23.798Z,18.70
2019-04-29T13:35:19.896Z,20.92
2019-04-29T13:36:25.904Z,21.77
2019-04-29T13:37:29.857Z,19.95
2019-04-29T13:38:33.959Z,19.95
2019-04-29T13:39:40.244Z,21.17
2019-04-29T13:40:45.209Z,22.73
2019-04-29T13:41:57.635Z,21.05
2019-04-29T13:42:54.967Z,21.15
2019-04-29T13:44:05.286Z,19.57
2019-04-29T13:45:12.884Z,26.45
2019-04-29T13:46:17.222Z,28.15
2019-04-29T13:47:39.016Z,31.37
2019-04-29T13:49:12.265Z,23.55
2019-04-29T13:50:38.946Z,19.82
2019-04-29T13:51:37.602Z,21.00
2019-04-29T13:52:41.752Z,18.35
2019-04-29T13:53:45.951Z,21.87
2019-04-29T13:54:51.645Z,19.23
2019-04-29T13:56:10.304Z,19.23
2019-04-29T13:57:08.827Z,17.92
2019-04-29T13:58:07.314Z,15.83
2019-04-29T13:59:13.045Z,20.37
2019-04-29T14:00:26.406Z,17.32
2019-04-29T14:01:39.734Z,17.30
2019-04-29T14:02:42.421Z,20.25
2019-04-29T14:04:02.956Z,18.75
2019-04-29T14:05:09.901Z,21.42
2019-04-29T14:06:18.420Z,20.70
2019-04-29T14:07:21.957Z,20.45
2019-04-29T14:08:28.749Z,19.27
2019-04-29T14:09:35.096Z,21.02
2019-04-29T14:10:39.462Z,18.90
2019-04-29T14:12:00.472Z,18.17
2019-04-29T14:13:04.978Z,19.92
2019-04-29T14:13:58.483Z,17.92
2019-04-29T14:15:02.598Z,17.82
2019-04-29T14:16:07.681Z,17.75
2019-04-29T14:17:25.734Z,15.85
2019-04-29T14:18:20.654Z,22.10
2019-04-29T14:19:40.611Z,19.65
2019-04-29T14:20:30.440Z,18.85
2019-04-29T14:21:34.707Z,17.95
2019-04-29T14:22:38.932Z,19.50
2019-04-29T14:23:44.367Z,18.45
2019-04-29T14:24:51.717Z,19.87
2019-04-29T14:25:55.973Z,19.95
2019-04-29T14:27:01.599Z,20.77
2019-04-29T14:28:05.914Z,26.30